Time;durP1;ratioP1;P1;durP2;ratioP2;P2;SDS_P1;SDS_P2;PMS_P1;PMS_P2;Temp;Humidity;BMP_temperature;BMP_pressure;BME280_temperature;BME280_humidity;BME280_pressure;Samples;Min_cycle;Max_cycle;Signal;HPM_P1;HPM_P2
2021/12/04 00:02:17;;;;;;;;;;;17.70;74.40;;;;;;5095811;28;19912;-63
2021/12/04 00:04:46;;;;;;;;;;;17.70;74.40;;;;;;5094864;28;19908;-65
2021/12/04 00:07:11;;;;;;;;;;;17.70;74.50;;;;;;5094850;28;19969;-64
2021/12/04 00:09:38;;;;;;;;;;;17.70;74.50;;;;;;5095395;28;19908;-64
2021/12/04 00:12:05;;;;;;;;;;;17.70;74.50;;;;;;5076987;28;19909;-64
2021/12/04 00:14:32;;;;;;;;;;;17.70;74.50;;;;;;5096364;28;19912;-63
2021/12/04 00:17:01;;;;;;;;;;;17.70;74.60;;;;;;5094975;28;19908;-64
2021/12/04 00:19:26;;;;;;;;;;;17.70;74.60;;;;;;5077416;28;19908;-65
2021/12/04 00:21:52;;;;;;;;;;;17.70;74.60;;;;;;5098445;28;20283;-65
2021/12/04 00:24:18;;;;;;;;;;;17.70;74.60;;;;;;5094382;28;19908;-65
2021/12/04 00:26:44;;;;;;;;;;;17.70;74.70;;;;;;5094480;28;19922;-65
2021/12/04 00:29:10;;;;;;;;;;;17.70;74.70;;;;;;5076502;28;19912;-66
2021/12/04 00:31:36;;;;;;;;;;;17.70;74.70;;;;;;5076824;28;19914;-66
2021/12/04 00:34:02;;;;;;;;;;;17.70;74.70;;;;;;5093751;28;20261;-65
2021/12/04 00:36:38;;;;;;;;;;;17.70;74.80;;;;;;5095054;28;19912;-66
2021/12/04 00:50:14;;;;;;;;;;;17.70;74.90;;;;;;5094536;28;19920;-64
2021/12/04 00:52:40;;;;;;;;;;;17.70;74.90;;;;;;5094247;28;20061;-65
2021/12/04 00:55:06;;;;;;;;;;;17.70;74.90;;;;;;5059482;28;19958;-64
2021/12/04 00:57:31;;;;;;;;;;;17.70;74.90;;;;;;5075656;28;20006;-64
2021/12/04 00:59:57;;;;;;;;;;;17.80;74.90;;;;;;5075461;28;19939;-64
2021/12/04 01:02:25;;;;;;;;;;;17.70;75.00;;;;;;5093525;28;19908;-65
2021/12/04 01:04:51;;;;;;;;;;;17.70;75.00;;;;;;5075218;28;19958;-64
2021/12/04 01:07:17;;;;;;;;;;;17.70;75.00;;;;;;5093396;28;19912;-64
2021/12/04 01:09:43;;;;;;;;;;;17.70;75.00;;;;;;5093352;28;20003;-66
2021/12/04 01:12:09;;;;;;;;;;;17.70;75.00;;;;;;5093434;28;19917;-65
2021/12/04 01:14:35;;;;;;;;;;;17.70;75.00;;;;;;5075452;28;20026;-64
2021/12/04 01:17:00;;;;;;;;;;;17.70;75.10;;;;;;5075824;28;20371;-63
2021/12/04 01:19:31;;;;;;;;;;;17.70;75.10;;;;;;5095258;28;19908;-64
2021/12/04 01:21:56;;;;;;;;;;;17.70;75.10;;;;;;5092849;28;19965;-64
2021/12/04 01:24:22;;;;;;;;;;;17.80;75.20;;;;;;5094106;28;19912;-65
2021/12/04 01:26:48;;;;;;;;;;;17.70;75.10;;;;;;5094066;28;20310;-64
2021/12/04 01:29:13;;;;;;;;;;;17.70;75.20;;;;;;5075663;28;19931;-65
2021/12/04 01:31:39;;;;;;;;;;;17.70;75.20;;;;;;5093824;28;19912;-64
2021/12/04 01:34:04;;;;;;;;;;;17.70;75.20;;;;;;5093767;28;20375;-65
2021/12/04 01:36:30;;;;;;;;;;;17.70;75.20;;;;;;5092228;28;20067;-65
2021/12/04 01:38:56;;;;;;;;;;;17.70;75.20;;;;;;5093853;28;19908;-65
2021/12/04 01:41:21;;;;;;;;;;;17.70;75.20;;;;;;5094295;28;19915;-64
2021/12/04 01:43:47;;;;;;;;;;;17.70;75.20;;;;;;5093732;28;19908;-64
2021/12/04 01:46:12;;;;;;;;;;;17.70;75.20;;;;;;5095740;28;19916;-64
2021/12/04 01:48:37;;;;;;;;;;;17.70;75.20;;;;;;5097432;28;19916;-64
2021/12/04 01:51:03;;;;;;;;;;;17.70;75.20;;;;;;5079289;28;20292;-64
2021/12/04 01:53:29;;;;;;;;;;;17.70;75.20;;;;;;5097077;28;19934;-64
2021/12/04 01:55:55;;;;;;;;;;;17.70;75.20;;;;;;5096719;28;19916;-65
2021/12/04 01:58:20;;;;;;;;;;;17.70;75.20;;;;;;5062261;28;19998;-64
2021/12/04 02:00:46;;;;;;;;;;;17.70;75.30;;;;;;5097053;28;19946;-64
2021/12/04 02:03:16;;;;;;;;;;;17.70;75.20;;;;;;5096205;28;19908;-64
2021/12/04 02:05:42;;;;;;;;;;;17.70;75.20;;;;;;5096801;28;19915;-64
2021/12/04 02:08:17;;;;;;;;;;;17.70;75.20;;;;;;5096721;28;19999;-64
2021/12/04 02:10:43;;;;;;;;;;;17.70;75.20;;;;;;5078763;28;20418;-64
2021/12/04 02:13:09;;;;;;;;;;;17.70;75.20;;;;;;5096995;28;19912;-64
2021/12/04 02:15:34;;;;;;;;;;;17.70;75.20;;;;;;5096005;28;19934;-64
2021/12/04 02:18:02;;;;;;;;;;;17.70;75.20;;;;;;5096719;28;19908;-64
2021/12/04 02:20:28;;;;;;;;;;;17.70;75.20;;;;;;5079012;28;19915;-64
2021/12/04 02:22:56;;;;;;;;;;;17.70;75.20;;;;;;5078789;28;19908;-64
2021/12/04 02:25:21;;;;;;;;;;;17.70;75.20;;;;;;5077807;28;19908;-65
2021/12/04 02:27:47;;;;;;;;;;;17.70;75.20;;;;;;5077360;28;20241;-64
2021/12/04 02:30:17;;;;;;;;;;;17.70;75.20;;;;;;5095587;28;19993;-64
2021/12/04 02:32:43;;;;;;;;;;;17.70;75.20;;;;;;5096006;28;19908;-65
2021/12/04 02:35:08;;;;;;;;;;;17.70;75.20;;;;;;5077419;28;20414;-64
2021/12/04 02:37:34;;;;;;;;;;;17.80;75.20;;;;;;5077498;28;19916;-65
2021/12/04 02:40:00;;;;;;;;;;;17.70;75.20;;;;;;5077831;28;19915;-65
2021/12/04 02:42:28;;;;;;;;;;;17.70;75.20;;;;;;5095337;28;19915;-64
2021/12/04 02:44:54;;;;;;;;;;;17.70;75.20;;;;;;5077129;28;20404;-65
2021/12/04 02:47:19;;;;;;;;;;;17.70;75.20;;;;;;5077271;28;19974;-65
2021/12/04 02:49:45;;;;;;;;;;;17.70;75.20;;;;;;5095732;28;20364;-65
2021/12/04 02:52:11;;;;;;;;;;;17.70;75.20;;;;;;5095480;28;19912;-65
2021/12/04 02:54:39;;;;;;;;;;;17.70;75.20;;;;;;5095255;28;19977;-64
2021/12/04 02:57:05;;;;;;;;;;;17.70;75.20;;;;;;5095049;28;19908;-64
2021/12/04 02:59:33;;;;;;;;;;;17.80;75.20;;;;;;5077239;28;19912;-64
2021/12/04 03:01:58;;;;;;;;;;;17.70;75.20;;;;;;5095086;28;19908;-64
2021/12/04 03:04:25;;;;;;;;;;;17.80;75.20;;;;;;5077695;28;20437;-64
2021/12/04 03:06:50;;;;;;;;;;;17.80;75.20;;;;;;5077603;28;20407;-64
2021/12/04 03:09:16;;;;;;;;;;;17.80;75.20;;;;;;5095522;28;19908;-65
2021/12/04 03:11:41;;;;;;;;;;;17.70;75.10;;;;;;5077619;28;19958;-65
2021/12/04 03:14:07;;;;;;;;;;;17.80;75.10;;;;;;5077427;28;19920;-65
2021/12/04 03:16:33;;;;;;;;;;;17.70;75.10;;;;;;5095780;28;19912;-65
2021/12/04 03:18:59;;;;;;;;;;;17.70;75.10;;;;;;5095436;28;19962;-65
2021/12/04 03:21:25;;;;;;;;;;;17.70;75.10;;;;;;5095165;28;20367;-65
2021/12/04 03:24:24;;;;;;;;;;;17.70;75.10;;;;;;5095181;28;19954;-65
2021/12/04 03:26:42;;;;;;;;;;;17.70;75.10;;;;;;5080558;28;19966;-65
2021/12/04 03:29:11;;;;;;;;;;;17.70;75.10;;;;;;5092788;28;19911;-65
2021/12/04 03:42:25;;;;;;;;;;;17.80;75.10;;;;;;5074647;28;19916;-64
2021/12/04 03:44:50;;;;;;;;;;;17.70;75.10;;;;;;5083646;28;19912;-64
2021/12/04 03:47:16;;;;;;;;;;;17.80;75.10;;;;;;5076288;28;19927;-65
2021/12/04 03:49:41;;;;;;;;;;;17.80;75.10;;;;;;5094657;28;19909;-64
2021/12/04 03:52:07;;;;;;;;;;;17.70;75.10;;;;;;5072744;28;19957;-65
2021/12/04 03:54:32;;;;;;;;;;;17.80;75.10;;;;;;5056491;28;19908;-65
2021/12/04 03:57:04;;;;;;;;;;;17.70;75.10;;;;;;5056827;28;19912;-64
2021/12/04 03:59:30;;;;;;;;;;;17.80;75.10;;;;;;5088150;28;19908;-65
2021/12/04 04:01:56;;;;;;;;;;;17.80;75.10;;;;;;5094372;28;20012;-65
2021/12/04 04:04:21;;;;;;;;;;;17.80;75.00;;;;;;5094527;28;19909;-64
2021/12/04 04:06:46;;;;;;;;;;;17.80;75.00;;;;;;5094481;28;20427;-64
2021/12/04 04:09:12;;;;;;;;;;;17.70;75.00;;;;;;5093927;28;20256;-64
2021/12/04 04:11:41;;;;;;;;;;;17.80;75.10;;;;;;5094167;28;19954;-64
2021/12/04 04:14:06;;;;;;;;;;;17.80;75.00;;;;;;5094364;28;19915;-64
2021/12/04 04:16:35;;;;;;;;;;;17.70;75.00;;;;;;5059432;28;19912;-64
2021/12/04 04:19:00;;;;;;;;;;;17.80;75.00;;;;;;5094299;28;20368;-64
2021/12/04 04:21:26;;;;;;;;;;;17.80;75.00;;;;;;5094277;28;19915;-65
2021/12/04 04:23:51;;;;;;;;;;;17.80;74.90;;;;;;5094178;28;19912;-64
2021/12/04 04:26:17;;;;;;;;;;;17.80;75.00;;;;;;5094074;28;19908;-64
2021/12/04 04:28:42;;;;;;;;;;;17.80;74.90;;;;;;5093110;28;19912;-64
2021/12/04 04:31:09;;;;;;;;;;;17.70;74.90;;;;;;5093110;28;20309;-64
2021/12/04 04:33:38;;;;;;;;;;;17.70;74.90;;;;;;5092894;28;19912;-64
2021/12/04 04:36:18;;;;;;;;;;;17.80;74.90;;;;;;5093194;28;19908;-64
2021/12/04 04:38:50;;;;;;;;;;;17.80;74.90;;;;;;5093105;28;19908;-65
2021/12/04 05:01:21;;;;;;;;;;;17.80;74.80;;;;;;5079173;28;20352;-64
2021/12/04 05:11:17;;;;;;;;;;;17.80;74.80;;;;;;5078665;28;20383;-64
2021/12/04 05:13:43;;;;;;;;;;;17.80;74.80;;;;;;5093270;28;19998;-65
2021/12/04 05:16:17;;;;;;;;;;;17.80;74.70;;;;;;5093615;28;19951;-64
2021/12/04 05:18:58;;;;;;;;;;;17.80;74.70;;;;;;5093630;28;19908;-64
2021/12/04 05:21:24;;;;;;;;;;;17.80;74.80;;;;;;5097584;28;20341;-64
2021/12/04 05:23:50;;;;;;;;;;;17.80;74.70;;;;;;5097846;28;19995;-65
2021/12/04 05:26:17;;;;;;;;;;;17.80;74.70;;;;;;5097446;28;20006;-64
2021/12/04 05:28:43;;;;;;;;;;;17.80;74.70;;;;;;5079074;28;19912;-64
2021/12/04 05:31:08;;;;;;;;;;;17.80;74.70;;;;;;5097444;28;19981;-66
2021/12/04 05:33:34;;;;;;;;;;;17.80;74.70;;;;;;5097301;28;19951;-64
2021/12/04 05:35:59;;;;;;;;;;;17.80;74.70;;;;;;5079231;28;19908;-64
2021/12/04 05:38:25;;;;;;;;;;;17.80;74.70;;;;;;5096492;28;19915;-64
2021/12/04 05:40:50;;;;;;;;;;;17.80;74.60;;;;;;5097014;28;19985;-64
2021/12/04 05:43:17;;;;;;;;;;;17.80;74.70;;;;;;5079318;28;20395;-64
2021/12/04 05:45:50;;;;;;;;;;;17.80;74.60;;;;;;5096957;28;19961;-63
2021/12/04 05:53:57;;;;;;;;;;;17.80;74.60;;;;;;5040419;28;20011;-64
2021/12/04 05:56:22;;;;;;;;;;;17.80;74.60;;;;;;5096082;28;20287;-64
2021/12/04 05:58:48;;;;;;;;;;;17.80;74.60;;;;;;5062338;28;19909;-65
2021/12/04 06:01:15;;;;;;;;;;;17.80;74.60;;;;;;5097204;28;19912;-64
2021/12/04 06:03:41;;;;;;;;;;;17.80;74.60;;;;;;5096981;28;19994;-64
2021/12/04 06:06:06;;;;;;;;;;;17.80;74.60;;;;;;5096708;28;20374;-64
2021/12/04 06:08:32;;;;;;;;;;;17.80;74.60;;;;;;5096580;28;19912;-64
2021/12/04 06:11:00;;;;;;;;;;;17.80;74.60;;;;;;5096770;28;19997;-66
2021/12/04 06:13:25;;;;;;;;;;;17.80;74.50;;;;;;5096731;28;20356;-65
2021/12/04 06:15:51;;;;;;;;;;;17.80;74.50;;;;;;5096379;28;19908;-65
2021/12/04 06:18:17;;;;;;;;;;;17.80;74.60;;;;;;5096608;28;20340;-64
2021/12/04 06:23:27;;;;;;;;;;;17.80;74.50;;;;;;5096038;28;19953;-65
2021/12/04 06:25:55;;;;;;;;;;;17.80;74.50;;;;;;5096210;28;19908;-64
2021/12/04 06:28:21;;;;;;;;;;;17.80;74.50;;;;;;5096158;28;19965;-65
2021/12/04 06:30:46;;;;;;;;;;;17.80;74.50;;;;;;5077275;28;19908;-65
2021/12/04 06:33:12;;;;;;;;;;;17.80;74.50;;;;;;5077886;28;19917;-65
2021/12/04 06:35:40;;;;;;;;;;;17.80;74.50;;;;;;5096235;28;19939;-65
2021/12/04 06:38:06;;;;;;;;;;;17.80;74.40;;;;;;5096574;28;19908;-65
2021/12/04 06:40:35;;;;;;;;;;;17.80;74.40;;;;;;5080121;28;19961;-65
2021/12/04 06:43:01;;;;;;;;;;;17.80;74.40;;;;;;5079650;28;19909;-65
2021/12/04 06:45:27;;;;;;;;;;;17.80;74.40;;;;;;5079712;28;19965;-64
2021/12/04 06:47:57;;;;;;;;;;;17.80;74.40;;;;;;5096460;28;19923;-65
2021/12/04 06:53:13;;;;;;;;;;;17.80;74.30;;;;;;5090518;28;19908;-65
2021/12/04 06:55:42;;;;;;;;;;;17.80;74.40;;;;;;5086893;28;19913;-65
2021/12/04 06:58:08;;;;;;;;;;;17.80;74.30;;;;;;5091101;28;19908;-64
2021/12/04 07:00:34;;;;;;;;;;;17.80;74.30;;;;;;5081564;28;20238;-65
2021/12/04 07:03:00;;;;;;;;;;;17.90;74.30;;;;;;5097425;28;19919;-66
2021/12/04 07:05:25;;;;;;;;;;;17.80;74.30;;;;;;5077609;28;19908;-65
2021/12/04 07:07:51;;;;;;;;;;;17.80;74.30;;;;;;5095637;28;19912;-65
2021/12/04 07:10:16;;;;;;;;;;;17.80;74.30;;;;;;5077300;28;19915;-65
2021/12/04 07:12:42;;;;;;;;;;;17.80;74.30;;;;;;5095504;28;19931;-65
2021/12/04 07:15:09;;;;;;;;;;;17.80;74.30;;;;;;5077599;28;19908;-63
2021/12/04 07:17:35;;;;;;;;;;;17.80;74.30;;;;;;5077744;28;19989;-63
2021/12/04 07:20:02;;;;;;;;;;;17.80;74.20;;;;;;5077659;28;20000;-64
2021/12/04 07:22:31;;;;;;;;;;;17.80;74.20;;;;;;5077930;28;19908;-64
2021/12/04 07:24:57;;;;;;;;;;;17.80;74.20;;;;;;5096592;28;19958;-65
2021/12/04 07:27:23;;;;;;;;;;;17.80;74.20;;;;;;5079143;28;19958;-64
2021/12/04 07:29:49;;;;;;;;;;;17.90;74.20;;;;;;5098143;28;20380;-64
2021/12/04 07:32:14;;;;;;;;;;;17.80;74.10;;;;;;5079047;28;19908;-64
2021/12/04 07:34:40;;;;;;;;;;;17.90;74.20;;;;;;5061223;28;19908;-65
2021/12/04 07:37:05;;;;;;;;;;;17.90;74.20;;;;;;5075196;28;19917;-65
2021/12/04 07:39:30;;;;;;;;;;;17.90;74.30;;;;;;5042538;28;19919;-64
2021/12/04 07:41:56;;;;;;;;;;;17.90;74.20;;;;;;5055496;28;19958;-63
2021/12/04 07:44:21;;;;;;;;;;;17.90;74.10;;;;;;5045180;28;19913;-63
2021/12/04 07:46:47;;;;;;;;;;;17.90;74.00;;;;;;5033154;28;19924;-63
2021/12/04 07:49:16;;;;;;;;;;;17.90;74.00;;;;;;5036050;28;19909;-64
2021/12/04 07:51:43;;;;;;;;;;;17.90;74.00;;;;;;5040029;28;19990;-64
2021/12/04 07:54:09;;;;;;;;;;;17.90;73.90;;;;;;5050358;28;20247;-61
2021/12/04 07:56:34;;;;;;;;;;;18.00;74.00;;;;;;5034665;28;19921;-61
2021/12/04 07:59:00;;;;;;;;;;;18.00;74.10;;;;;;5033421;28;19920;-62
2021/12/04 08:01:26;;;;;;;;;;;18.00;74.10;;;;;;5034724;28;20004;-61
2021/12/04 08:03:51;;;;;;;;;;;18.00;74.20;;;;;;5055206;28;20055;-61
2021/12/04 08:06:17;;;;;;;;;;;18.00;74.40;;;;;;5040006;28;20129;-62
2021/12/04 08:08:43;;;;;;;;;;;18.10;74.40;;;;;;5038580;28;19920;-62
2021/12/04 08:11:08;;;;;;;;;;;18.00;74.50;;;;;;5032811;28;19913;-62
2021/12/04 08:13:34;;;;;;;;;;;18.10;74.70;;;;;;5034767;28;19913;-62
2021/12/04 08:15:59;;;;;;;;;;;18.10;74.80;;;;;;5035426;28;19921;-62
2021/12/04 08:18:25;;;;;;;;;;;18.10;74.80;;;;;;5036530;28;19909;-63
2021/12/04 08:20:50;;;;;;;;;;;18.10;74.80;;;;;;5034429;28;19917;-64
2021/12/04 08:23:17;;;;;;;;;;;18.10;74.70;;;;;;5064769;28;19970;-62
2021/12/04 08:25:42;;;;;;;;;;;18.10;74.80;;;;;;5041485;28;19922;-63
2021/12/04 08:28:08;;;;;;;;;;;18.20;74.80;;;;;;5037731;28;20270;-63
2021/12/04 08:30:37;;;;;;;;;;;18.10;74.90;;;;;;5036648;28;20308;-63
2021/12/04 08:33:02;;;;;;;;;;;18.20;74.80;;;;;;5036136;28;20008;-63
2021/12/04 08:35:30;;;;;;;;;;;18.10;74.80;;;;;;5042134;28;19956;-60
2021/12/04 08:37:58;;;;;;;;;;;18.20;74.70;;;;;;5039874;28;20043;-63
2021/12/04 08:40:27;;;;;;;;;;;18.20;74.80;;;;;;5031680;28;19913;-62
2021/12/04 08:42:52;;;;;;;;;;;18.20;74.70;;;;;;5031741;28;19921;-61
2021/12/04 08:45:18;;;;;;;;;;;18.20;74.60;;;;;;5034807;28;19917;-63
2021/12/04 08:47:44;;;;;;;;;;;18.20;74.70;;;;;;5075214;28;19994;-66
2021/12/04 08:50:10;;;;;;;;;;;18.20;74.30;;;;;;5076039;28;19913;-65
2021/12/04 08:52:36;;;;;;;;;;;18.20;74.00;;;;;;5080302;28;19908;-63
2021/12/04 08:55:02;;;;;;;;;;;18.20;74.20;;;;;;5074269;28;20273;-66
2021/12/04 08:57:27;;;;;;;;;;;18.20;74.20;;;;;;5035431;28;19913;-66
2021/12/04 08:59:52;;;;;;;;;;;18.30;74.20;;;;;;5052711;28;20296;-63
2021/12/04 09:02:18;;;;;;;;;;;18.30;74.20;;;;;;5052760;28;19923;-66
2021/12/04 09:04:46;;;;;;;;;;;18.30;74.20;;;;;;5056571;28;19946;-64
2021/12/04 09:07:12;;;;;;;;;;;18.30;74.30;;;;;;5066326;28;20017;-64
2021/12/04 09:09:37;;;;;;;;;;;18.30;74.40;;;;;;5071296;28;20299;-62
2021/12/04 09:12:04;;;;;;;;;;;18.30;74.40;;;;;;5072701;28;20400;-63
2021/12/04 09:14:30;;;;;;;;;;;18.30;74.30;;;;;;5054595;28;19995;-64
2021/12/04 09:16:56;;;;;;;;;;;18.30;74.30;;;;;;5052704;28;19908;-66
2021/12/04 09:19:23;;;;;;;;;;;18.30;72.80;;;;;;5068666;28;20372;-65
2021/12/04 09:21:48;;;;;;;;;;;17.80;58.00;;;;;;5053366;28;19919;-65
2021/12/04 09:24:16;;;;;;;;;;;17.10;57.10;;;;;;5052855;28;19908;-66
2021/12/04 09:26:55;;;;;;;;;;;16.70;62.20;;;;;;5052746;28;19909;-65
2021/12/04 10:18:09;;;;;;;;;;;18.10;70.70;;;;;;5075937;28;19977;-62
2021/12/04 10:34:25;;;;;;;;;;;18.20;70.50;;;;;;5055916;28;19915;-62
2021/12/04 10:36:52;;;;;;;;;;;18.10;70.50;;;;;;5037521;28;19916;-61
2021/12/04 10:39:17;;;;;;;;;;;18.20;70.50;;;;;;5055971;28;19998;-62
2021/12/04 10:41:43;;;;;;;;;;;18.20;70.60;;;;;;5055603;28;19909;-62
2021/12/04 10:44:17;;;;;;;;;;;18.10;70.60;;;;;;5055422;28;19913;-63
2021/12/04 10:47:04;;;;;;;;;;;18.20;70.70;;;;;;5034117;28;19963;-63
2021/12/04 10:49:39;;;;;;;;;;;18.20;70.70;;;;;;5035294;28;20381;-62
2021/12/04 10:52:06;;;;;;;;;;;18.20;70.80;;;;;;5035600;28;19909;-63
2021/12/04 10:54:38;;;;;;;;;;;18.20;70.80;;;;;;5035101;28;20285;-62
2021/12/04 10:57:36;;;;;;;;;;;18.20;70.80;;;;;;5049836;28;19940;-63
2021/12/04 11:00:36;;;;;;;;;;;18.20;70.80;;;;;;5035312;28;19917;-63
2021/12/04 11:03:19;;;;;;;;;;;18.10;70.80;;;;;;5031806;28;19955;-62
2021/12/04 11:43:49;;;;;;;;;;;18.10;70.50;;;;;;5034440;28;19909;-63
2021/12/04 11:46:24;;;;;;;;;;;18.10;70.50;;;;;;5033228;28;20009;-64
2021/12/04 11:48:49;;;;;;;;;;;18.10;70.50;;;;;;5033321;28;19952;-64
2021/12/04 11:51:19;;;;;;;;;;;18.20;70.50;;;;;;5034640;28;20285;-64
2021/12/04 11:53:44;;;;;;;;;;;18.20;70.60;;;;;;5034209;28;19913;-64
2021/12/04 11:56:17;;;;;;;;;;;18.20;70.60;;;;;;5032860;28;19916;-63
2021/12/04 11:58:43;;;;;;;;;;;18.20;70.60;;;;;;5034449;28;19909;-65
2021/12/04 12:01:19;;;;;;;;;;;18.10;70.60;;;;;;5034137;28;19963;-63
2021/12/04 12:03:52;;;;;;;;;;;18.10;70.50;;;;;;5032830;28;20282;-62
2021/12/04 12:06:26;;;;;;;;;;;18.10;70.30;;;;;;5034309;28;19913;-64
2021/12/04 12:08:58;;;;;;;;;;;18.20;70.00;;;;;;5036392;28;19940;-58
2021/12/04 12:11:25;;;;;;;;;;;18.10;70.00;;;;;;5046373;28;19909;-57
2021/12/04 12:13:51;;;;;;;;;;;18.10;70.10;;;;;;5042124;28;19920;-57
2021/12/04 12:16:21;;;;;;;;;;;18.10;70.10;;;;;;5033261;28;20277;-65
2021/12/04 12:18:52;;;;;;;;;;;18.10;69.40;;;;;;5033307;28;20004;-65
2021/12/04 12:21:22;;;;;;;;;;;18.00;64.70;;;;;;5032021;28;20488;-63
2021/12/04 12:24:11;;;;;;;;;;;18.00;66.60;;;;;;5033074;28;20043;-58
2021/12/04 12:26:46;;;;;;;;;;;17.90;68.20;;;;;;5033242;28;20378;-59
2021/12/04 12:32:25;;;;;;;;;;;17.80;71.00;;;;;;5047854;28;19924;-58
2021/12/04 12:37:15;;;;;;;;;;;17.70;71.10;;;;;;5054994;28;19966;-58
2021/12/04 12:40:12;;;;;;;;;;;17.70;71.10;;;;;;5042244;28;20001;-57
2021/12/04 12:42:39;;;;;;;;;;;17.70;71.10;;;;;;5036057;28;19913;-59
2021/12/04 12:45:18;;;;;;;;;;;17.70;71.10;;;;;;5054106;28;19935;-58
2021/12/04 12:48:07;;;;;;;;;;;17.70;71.20;;;;;;5032640;28;19921;-59
2021/12/04 12:50:37;;;;;;;;;;;17.70;71.30;;;;;;5019924;28;20286;-58
2021/12/04 12:53:04;;;;;;;;;;;17.70;71.40;;;;;;5026588;28;19913;-58
2021/12/04 12:55:33;;;;;;;;;;;17.70;71.40;;;;;;5032400;28;19979;-59
2021/12/04 12:58:09;;;;;;;;;;;17.80;71.50;;;;;;5034454;28;19917;-58
2021/12/04 13:11:44;;;;;;;;;;;17.80;73.10;;;;;;5042504;28;19981;-58
2021/12/04 13:14:17;;;;;;;;;;;17.70;73.30;;;;;;5039128;28;19913;-58
2021/12/04 13:16:43;;;;;;;;;;;17.70;73.40;;;;;;5048058;28;19909;-62
2021/12/04 13:19:12;;;;;;;;;;;17.80;73.50;;;;;;5024717;28;20374;-61
2021/12/04 13:21:46;;;;;;;;;;;17.70;73.40;;;;;;5031479;28;19913;-61
2021/12/04 13:24:12;;;;;;;;;;;17.70;73.50;;;;;;5038473;28;19909;-61
2021/12/04 13:26:42;;;;;;;;;;;17.70;73.60;;;;;;5047892;28;20323;-61
2021/12/04 13:29:08;;;;;;;;;;;17.70;73.70;;;;;;5037149;28;19912;-62
2021/12/04 13:31:40;;;;;;;;;;;17.70;73.80;;;;;;5028431;28;19916;-61
2021/12/04 13:34:06;;;;;;;;;;;17.70;73.80;;;;;;5032678;28;19914;-61
2021/12/04 13:36:32;;;;;;;;;;;17.80;73.90;;;;;;5019745;28;19916;-62
2021/12/04 13:39:08;;;;;;;;;;;17.70;73.80;;;;;;5019414;28;19917;-60
2021/12/04 13:41:34;;;;;;;;;;;17.70;73.80;;;;;;5028794;28;19917;-59
2021/12/04 13:44:00;;;;;;;;;;;17.70;73.70;;;;;;5041383;28;20399;-62
2021/12/04 13:46:26;;;;;;;;;;;17.70;73.80;;;;;;5056830;28;19921;-60
2021/12/04 13:48:52;;;;;;;;;;;17.70;73.80;;;;;;5069519;28;19915;-62
2021/12/04 13:51:17;;;;;;;;;;;17.60;73.90;;;;;;5046282;28;19909;-63
2021/12/04 13:53:44;;;;;;;;;;;17.70;73.90;;;;;;5092905;28;19908;-63
2021/12/04 13:56:10;;;;;;;;;;;17.70;74.00;;;;;;5074950;28;19917;-63
2021/12/04 13:59:05;;;;;;;;;;;17.70;74.00;;;;;;5067872;28;19908;-61
2021/12/04 14:01:31;;;;;;;;;;;17.60;74.10;;;;;;5063455;28;20210;-62
2021/12/04 14:04:00;;;;;;;;;;;17.60;74.30;;;;;;5073256;28;19908;-62
2021/12/04 14:06:26;;;;;;;;;;;17.60;74.40;;;;;;5066179;28;20333;-62
2021/12/04 14:09:02;;;;;;;;;;;17.60;74.40;;;;;;5087675;28;19959;-63
2021/12/04 14:11:31;;;;;;;;;;;17.60;74.40;;;;;;5082356;28;19916;-62
2021/12/04 14:13:56;;;;;;;;;;;17.60;74.50;;;;;;5060057;28;19919;-62
2021/12/04 14:16:23;;;;;;;;;;;17.60;74.40;;;;;;5091527;28;20308;-62
2021/12/04 14:18:48;;;;;;;;;;;17.60;74.50;;;;;;5076966;28;19918;-62
2021/12/04 14:21:14;;;;;;;;;;;17.60;74.50;;;;;;5083882;28;20433;-61
2021/12/04 14:23:39;;;;;;;;;;;17.60;74.50;;;;;;5065752;28;19957;-60
2021/12/04 14:26:05;;;;;;;;;;;17.60;74.60;;;;;;5073400;28;19997;-61
2021/12/04 14:28:32;;;;;;;;;;;17.60;74.70;;;;;;5077086;28;20014;-58
2021/12/04 14:30:57;;;;;;;;;;;17.60;74.80;;;;;;5076141;28;20034;-61
2021/12/04 14:33:23;;;;;;;;;;;17.60;74.80;;;;;;5092379;28;19940;-62
2021/12/04 14:35:50;;;;;;;;;;;17.60;74.90;;;;;;5081747;28;19912;-63
2021/12/04 14:38:16;;;;;;;;;;;17.60;74.90;;;;;;5084831;28;19908;-61
2021/12/04 14:40:51;;;;;;;;;;;17.60;74.90;;;;;;5090084;28;19915;-61
2021/12/04 14:43:23;;;;;;;;;;;17.60;74.90;;;;;;5059390;28;20388;-59
2021/12/04 14:45:51;;;;;;;;;;;17.60;75.00;;;;;;5054858;28;19922;-61
2021/12/04 14:48:17;;;;;;;;;;;17.60;75.00;;;;;;5075863;28;20014;-61
2021/12/04 14:50:44;;;;;;;;;;;17.60;75.00;;;;;;5075708;28;19909;-61
2021/12/04 14:53:10;;;;;;;;;;;17.60;75.00;;;;;;5057097;28;19908;-60
2021/12/04 14:55:37;;;;;;;;;;;17.60;75.00;;;;;;5077115;28;19909;-60
2021/12/04 14:58:11;;;;;;;;;;;17.60;75.10;;;;;;5081122;28;19915;-61
2021/12/04 15:00:38;;;;;;;;;;;17.60;75.00;;;;;;5087933;28;19912;-61
2021/12/04 15:03:30;;;;;;;;;;;17.60;75.10;;;;;;5078264;28;19916;-60
2021/12/04 15:05:58;;;;;;;;;;;17.60;75.10;;;;;;5084116;28;20234;-62
2021/12/04 15:08:24;;;;;;;;;;;17.60;75.10;;;;;;5068338;28;19912;-62
2021/12/04 15:10:57;;;;;;;;;;;17.60;75.10;;;;;;5081088;28;19964;-60
2021/12/04 15:13:24;;;;;;;;;;;17.60;75.10;;;;;;5076666;28;19916;-61
2021/12/04 15:15:50;;;;;;;;;;;17.60;75.00;;;;;;5077254;28;19920;-59
2021/12/04 15:18:22;;;;;;;;;;;17.60;75.10;;;;;;5090548;28;19915;-63
2021/12/04 15:20:59;;;;;;;;;;;17.60;75.10;;;;;;5077846;28;19915;-61
2021/12/04 15:23:27;;;;;;;;;;;17.60;75.10;;;;;;5087175;28;19909;-62
2021/12/04 15:25:56;;;;;;;;;;;17.60;75.10;;;;;;5085850;28;19991;-63
2021/12/04 15:28:22;;;;;;;;;;;17.60;75.10;;;;;;5061554;28;20191;-61
2021/12/04 15:30:48;;;;;;;;;;;17.60;75.00;;;;;;5090978;28;20024;-61
2021/12/04 15:33:24;;;;;;;;;;;17.60;75.10;;;;;;5068186;28;19908;-62
2021/12/04 15:35:51;;;;;;;;;;;17.60;75.10;;;;;;5079793;28;19908;-61
2021/12/04 15:38:29;;;;;;;;;;;17.60;75.10;;;;;;5070788;28;19981;-60
